createdAt,value
2018-09-22T00:00:31.100Z,3.83
2018-09-22T00:02:59.549Z,2.90
2018-09-22T00:05:27.996Z,4.07
2018-09-22T00:07:56.464Z,3.67
2018-09-22T00:10:24.905Z,3.50
2018-09-22T00:12:53.432Z,3.17
2018-09-22T00:15:22.124Z,3.30
2018-09-22T00:17:50.563Z,2.97
2018-09-22T00:20:19.036Z,3.40
2018-09-22T00:22:47.529Z,2.40
2018-09-22T00:25:16.010Z,3.00
2018-09-22T00:27:44.513Z,3.90
2018-09-22T00:30:12.961Z,4.27
2018-09-22T00:32:41.419Z,3.83
2018-09-22T00:35:09.888Z,2.43
2018-09-22T00:37:38.485Z,2.50
2018-09-22T00:40:06.915Z,2.50
2018-09-22T00:42:35.375Z,2.80
2018-09-22T00:45:03.839Z,2.87
2018-09-22T00:47:32.297Z,3.07
2018-09-22T00:50:00.784Z,2.93
2018-09-22T00:52:29.273Z,2.63
2018-09-22T00:54:57.710Z,3.33
2018-09-22T00:57:26.155Z,2.80
2018-09-22T00:59:54.576Z,3.97
2018-09-22T01:02:23.021Z,3.73
2018-09-22T01:04:51.490Z,2.90
2018-09-22T01:07:19.933Z,3.13
2018-09-22T01:09:48.372Z,3.33
2018-09-22T01:12:16.824Z,3.00
2018-09-22T01:14:45.240Z,3.07
2018-09-22T01:17:13.760Z,3.10
2018-09-22T01:19:42.236Z,3.53
2018-09-22T01:22:10.699Z,2.90
2018-09-22T01:24:39.222Z,2.20
2018-09-22T01:27:07.672Z,3.20
2018-09-22T01:29:36.132Z,3.27
2018-09-22T01:32:04.560Z,2.93
2018-09-22T01:34:33.012Z,3.27
2018-09-22T01:37:01.432Z,2.60
2018-09-22T01:39:29.870Z,3.43
2018-09-22T01:41:58.314Z,2.90
2018-09-22T01:44:26.764Z,2.70
2018-09-22T01:46:55.203Z,2.30
2018-09-22T01:49:23.678Z,2.50
2018-09-22T01:51:52.118Z,2.57
2018-09-22T01:54:20.584Z,2.90
2018-09-22T01:56:49.036Z,2.20
2018-09-22T01:59:17.498Z,2.27
2018-09-22T02:01:45.922Z,2.70
2018-09-22T02:04:15.362Z,2.63
2018-09-22T02:06:43.785Z,2.97
2018-09-22T02:09:12.365Z,2.70
2018-09-22T02:11:41.063Z,2.43
2018-09-22T02:14:09.532Z,2.93
2018-09-22T02:16:37.972Z,2.07
2018-09-22T02:19:06.541Z,3.10
2018-09-22T02:21:34.977Z,3.23
2018-09-22T02:24:03.425Z,2.70
2018-09-22T02:26:31.881Z,3.63
2018-09-22T02:29:00.317Z,2.57
2018-09-22T02:31:28.768Z,2.37
2018-09-22T02:33:57.241Z,1.90
2018-09-22T02:36:25.688Z,1.93
2018-09-22T02:38:54.120Z,2.90
2018-09-22T02:41:22.601Z,2.40
2018-09-22T02:43:51.032Z,2.23
2018-09-22T02:46:20.501Z,2.50
2018-09-22T02:48:49.008Z,2.17
2018-09-22T02:51:17.441Z,2.30
2018-09-22T02:53:45.889Z,2.33
2018-09-22T02:56:14.334Z,2.10
2018-09-22T02:58:42.777Z,1.93
2018-09-22T03:01:11.220Z,2.37
2018-09-22T03:03:39.678Z,2.07
2018-09-22T03:06:08.163Z,1.90
2018-09-22T03:08:36.625Z,2.20
2018-09-22T03:11:05.073Z,1.67
2018-09-22T03:13:33.607Z,2.03
2018-09-22T03:16:02.005Z,2.93
2018-09-22T03:18:30.500Z,1.93
2018-09-22T03:20:59.013Z,1.63
2018-09-22T03:23:27.447Z,1.90
2018-09-22T03:25:55.906Z,2.17
2018-09-22T03:28:24.317Z,2.10
2018-09-22T03:30:53.739Z,1.97
2018-09-22T03:33:22.202Z,1.60
2018-09-22T03:35:50.637Z,2.43
2018-09-22T03:38:19.121Z,2.40
2018-09-22T03:40:47.573Z,2.30
2018-09-22T03:43:16.026Z,2.03
2018-09-22T03:45:44.488Z,2.63
2018-09-22T03:48:12.949Z,2.00
2018-09-22T03:50:41.382Z,2.33
2018-09-22T03:53:09.829Z,1.80
2018-09-22T03:55:38.300Z,1.73
2018-09-22T03:58:06.886Z,2.23
2018-09-22T04:00:35.344Z,2.43
2018-09-22T04:03:03.815Z,2.30
2018-09-22T04:05:32.417Z,2.10
2018-09-22T04:08:00.875Z,2.30
2018-09-22T04:10:29.348Z,2.77
2018-09-22T04:12:57.812Z,2.10
2018-09-22T04:15:26.281Z,2.13
2018-09-22T04:17:54.939Z,1.83
2018-09-22T04:20:23.380Z,1.90
2018-09-22T04:22:51.912Z,2.10
2018-09-22T04:25:20.360Z,2.07
2018-09-22T04:27:48.783Z,2.40
2018-09-22T04:30:17.308Z,1.77
2018-09-22T04:32:45.771Z,2.77
2018-09-22T04:35:14.206Z,2.80
2018-09-22T04:37:42.649Z,2.87
2018-09-22T04:40:11.146Z,2.03
2018-09-22T04:42:39.600Z,2.17
2018-09-22T04:45:08.063Z,1.93
2018-09-22T04:47:36.525Z,2.67
2018-09-22T04:50:04.971Z,2.00
2018-09-22T04:52:33.389Z,1.83
2018-09-22T04:55:01.867Z,1.40
2018-09-22T04:57:30.331Z,1.87
2018-09-22T04:59:58.773Z,2.53
2018-09-22T05:02:27.232Z,3.53
2018-09-22T05:04:55.659Z,2.60
2018-09-22T05:07:24.153Z,2.13
2018-09-22T05:09:52.642Z,1.83
2018-09-22T05:12:21.084Z,3.90
2018-09-22T05:14:49.498Z,2.83
2018-09-22T05:17:17.955Z,2.90
2018-09-22T05:19:46.513Z,2.33
2018-09-22T05:22:15.120Z,3.17
2018-09-22T05:24:43.727Z,2.30
2018-09-22T05:27:12.657Z,2.27
2018-09-22T05:29:41.073Z,3.20
2018-09-22T05:32:09.501Z,2.40
2018-09-22T05:34:37.926Z,4.47
2018-09-22T05:37:06.614Z,4.07
2018-09-22T05:39:35.078Z,2.70
2018-09-22T05:42:03.557Z,2.23
2018-09-22T05:44:32.004Z,2.57
2018-09-22T05:47:00.487Z,2.90
2018-09-22T05:49:28.929Z,2.60
2018-09-22T05:51:57.368Z,3.03
2018-09-22T05:54:25.857Z,2.93
2018-09-22T05:56:54.330Z,3.83
2018-09-22T05:59:22.776Z,6.10
2018-09-22T06:01:51.299Z,3.30
2018-09-22T06:04:19.746Z,1.77
2018-09-22T06:06:48.166Z,3.67
2018-09-22T06:09:16.630Z,2.43
2018-09-22T06:11:45.068Z,3.40
2018-09-22T06:14:13.539Z,2.13
2018-09-22T06:16:42.060Z,2.53
2018-09-22T06:19:10.565Z,3.57
2018-09-22T06:23:08.264Z,3.50
2018-09-22T06:25:36.764Z,2.70
2018-09-22T06:28:05.188Z,2.30
2018-09-22T06:30:33.654Z,2.57
2018-09-22T06:33:02.105Z,2.97
2018-09-22T06:35:30.549Z,5.17
2018-09-22T06:37:59.031Z,7.37
2018-09-22T06:40:27.689Z,5.35
2018-09-22T06:42:56.189Z,5.67
2018-09-22T06:45:24.658Z,4.67
2018-09-22T06:47:53.096Z,6.37
2018-09-22T06:50:21.588Z,11.70
2018-09-22T06:52:50.208Z,5.00
2018-09-22T06:55:18.717Z,4.53
2018-09-22T06:57:47.158Z,3.63
2018-09-22T07:00:15.657Z,4.73
2018-09-22T07:02:44.103Z,4.83
2018-09-22T07:05:12.569Z,3.00
2018-09-22T07:07:41.025Z,3.87
2018-09-22T07:10:09.502Z,5.47
2018-09-22T07:12:38.018Z,4.90
2018-09-22T07:15:07.175Z,3.80
2018-09-22T07:17:35.655Z,5.30
2018-09-22T07:20:04.108Z,4.28
2018-09-22T07:22:37.953Z,4.00
2018-09-22T07:25:06.540Z,5.37
2018-09-22T07:27:35.073Z,5.20
2018-09-22T07:30:03.544Z,3.77
2018-09-22T07:32:31.973Z,5.20
2018-09-22T07:35:00.409Z,7.50
2018-09-22T07:37:28.889Z,3.53
2018-09-22T07:39:57.361Z,4.30
2018-09-22T07:42:25.821Z,6.07
2018-09-22T07:44:54.278Z,5.93
2018-09-22T07:47:23.167Z,5.10
2018-09-22T07:49:51.789Z,7.77
2018-09-22T07:52:20.310Z,3.63
2018-09-22T07:54:48.735Z,4.27
2018-09-22T07:57:17.263Z,7.13
2018-09-22T07:59:46.110Z,6.43
2018-09-22T08:02:14.610Z,4.27
2018-09-22T08:04:43.045Z,7.67
2018-09-22T08:07:11.519Z,4.73
2018-09-22T08:09:39.964Z,9.07
2018-09-22T08:12:08.413Z,11.00
2018-09-22T08:14:36.887Z,6.73
2018-09-22T08:17:05.350Z,4.07
2018-09-22T08:19:33.773Z,7.07
2018-09-22T08:22:02.233Z,5.00
2018-09-22T08:24:30.672Z,7.10
2018-09-22T08:26:59.120Z,6.60
2018-09-22T08:29:27.667Z,5.70
2018-09-22T08:31:56.140Z,4.77
2018-09-22T08:34:24.700Z,7.53
2018-09-22T08:36:53.383Z,6.13
2018-09-22T08:39:21.738Z,5.13
2018-09-22T08:41:50.382Z,4.93
2018-09-22T08:44:18.841Z,5.10
2018-09-22T08:46:47.274Z,4.87
2018-09-22T08:49:15.857Z,3.90
2018-09-22T08:51:44.351Z,6.53
2018-09-22T08:54:12.821Z,3.50
2018-09-22T08:56:41.281Z,6.50
2018-09-22T08:59:09.748Z,2.90
2018-09-22T09:01:38.183Z,5.73
2018-09-22T09:04:06.673Z,4.43
2018-09-22T09:06:35.151Z,4.43
2018-09-22T09:09:03.790Z,3.43
2018-09-22T09:11:32.274Z,6.27
2018-09-22T09:14:00.739Z,4.67
2018-09-22T09:16:29.201Z,8.43
2018-09-22T09:18:57.645Z,3.77
2018-09-22T09:21:26.145Z,7.60
2018-09-22T09:23:54.678Z,5.10
2018-09-22T09:26:23.320Z,3.33
2018-09-22T09:28:51.928Z,7.10
2018-09-22T09:31:20.579Z,6.77
2018-09-22T09:33:49.658Z,4.27
2018-09-22T09:36:18.475Z,5.20
2018-09-22T09:38:46.956Z,8.43
2018-09-22T09:41:15.689Z,7.30
2018-09-22T09:43:44.296Z,6.97
2018-09-22T09:46:12.729Z,8.63
2018-09-22T09:48:41.190Z,4.37
2018-09-22T09:51:09.665Z,6.77
2018-09-22T09:53:38.084Z,4.73
2018-09-22T09:56:06.546Z,4.47
2018-09-22T09:58:35.002Z,6.90
2018-09-22T10:01:03.444Z,8.57
2018-09-22T10:03:31.908Z,8.00
2018-09-22T10:06:00.476Z,9.53
2018-09-22T10:08:29.147Z,7.43
2018-09-22T10:10:57.653Z,4.97
2018-09-22T10:13:26.109Z,5.97
2018-09-22T10:15:54.551Z,7.07
2018-09-22T10:18:23.032Z,5.67
2018-09-22T10:20:51.722Z,3.90
2018-09-22T10:23:20.167Z,6.63
2018-09-22T10:25:48.611Z,4.47
2018-09-22T10:28:17.084Z,6.47
2018-09-22T10:30:45.524Z,5.37
2018-09-22T10:33:14.090Z,4.50
2018-09-22T10:35:42.540Z,2.30
2018-09-22T10:38:11.021Z,4.80
2018-09-22T10:40:39.502Z,6.60
2018-09-22T10:43:08.270Z,4.30
2018-09-22T10:45:36.909Z,4.87
2018-09-22T10:48:05.413Z,5.77
2018-09-22T10:50:33.925Z,5.85
2018-09-22T10:53:02.406Z,5.23
2018-09-22T10:55:30.836Z,4.77
2018-09-22T10:57:59.320Z,5.60
2018-09-22T11:00:27.750Z,3.77
2018-09-22T11:02:56.196Z,4.03
2018-09-22T11:05:24.695Z,3.93
2018-09-22T11:07:53.150Z,5.23
2018-09-22T11:10:21.612Z,5.90
2018-09-22T11:12:50.123Z,4.60
2018-09-22T11:15:18.609Z,5.20
2018-09-22T11:17:47.057Z,5.67
2018-09-22T11:20:15.536Z,3.90
2018-09-22T11:22:43.965Z,5.83
2018-09-22T11:25:12.420Z,4.63
2018-09-22T11:27:40.880Z,6.27
2018-09-22T11:30:09.452Z,5.70
2018-09-22T11:32:38.124Z,4.70
2018-09-22T11:35:06.813Z,2.97
2018-09-22T11:37:35.256Z,5.00
2018-09-22T11:40:03.680Z,3.77
2018-09-22T11:42:33.155Z,4.70
2018-09-22T11:45:01.581Z,4.67
2018-09-22T11:47:30.021Z,3.60
2018-09-22T11:49:58.508Z,3.47
2018-09-22T11:52:26.958Z,3.80
2018-09-22T11:54:55.469Z,3.40
2018-09-22T11:57:23.904Z,3.23
2018-09-22T11:59:52.336Z,4.00
2018-09-22T12:02:20.792Z,3.70
2018-09-22T12:04:49.250Z,5.07
2018-09-22T12:07:17.734Z,3.90
2018-09-22T12:09:46.227Z,4.03
2018-09-22T12:12:14.694Z,5.83
2018-09-22T12:14:43.136Z,2.50
2018-09-22T12:17:11.585Z,4.60
2018-09-22T12:19:40.057Z,3.73
2018-09-22T12:22:08.545Z,3.43
2018-09-22T12:24:37.037Z,4.70
2018-09-22T12:27:05.673Z,4.67
2018-09-22T12:29:34.175Z,3.80
2018-09-22T12:32:02.727Z,3.33
2018-09-22T12:34:31.231Z,4.10
2018-09-22T12:36:59.827Z,3.83
2018-09-22T12:39:28.433Z,3.77
2018-09-22T12:41:56.897Z,5.97
2018-09-22T12:44:25.316Z,2.30
2018-09-22T12:46:53.766Z,4.23
2018-09-22T12:49:22.210Z,4.23
2018-09-22T12:51:50.642Z,3.47
2018-09-22T12:54:19.063Z,4.17
2018-09-22T12:56:47.626Z,4.57
2018-09-22T12:59:16.033Z,3.40
2018-09-22T13:01:44.456Z,2.90
2018-09-22T13:04:12.911Z,3.13
2018-09-22T13:06:41.309Z,3.80
2018-09-22T13:09:10.643Z,3.40
2018-09-22T13:11:39.141Z,2.17
2018-09-22T13:14:07.591Z,3.63
2018-09-22T13:16:36.021Z,2.43
2018-09-22T13:19:04.472Z,2.90
2018-09-22T13:21:32.912Z,4.47
2018-09-22T13:24:01.368Z,3.43
2018-09-22T13:26:29.920Z,3.20
2018-09-22T13:28:58.382Z,3.57
2018-09-22T13:31:26.845Z,4.20
2018-09-22T13:33:55.281Z,3.57
2018-09-22T13:36:23.733Z,4.13
2018-09-22T13:38:52.385Z,2.60
2018-09-22T13:41:20.822Z,3.70
2018-09-22T13:43:49.244Z,4.13
2018-09-22T13:46:17.661Z,3.33
2018-09-22T13:48:46.089Z,3.77
2018-09-22T13:52:17.368Z,3.43
2018-09-22T13:54:45.927Z,3.43
2018-09-22T13:57:14.361Z,2.57
2018-09-22T13:59:42.793Z,3.33
2018-09-22T14:02:11.244Z,4.57
2018-09-22T14:04:39.648Z,4.13
2018-09-22T14:07:08.112Z,3.83
2018-09-22T14:09:36.642Z,3.53
2018-09-22T14:12:05.070Z,2.57
2018-09-22T14:14:33.503Z,2.73
2018-09-22T14:17:01.984Z,4.03
2018-09-22T14:19:30.477Z,5.90
2018-09-22T14:21:58.935Z,3.63
2018-09-22T14:24:27.444Z,4.47
2018-09-22T14:26:55.921Z,3.30
2018-09-22T14:29:24.369Z,5.17
2018-09-22T14:31:52.828Z,3.20
2018-09-22T14:34:21.286Z,4.77
2018-09-22T14:36:49.730Z,3.67
2018-09-22T14:39:18.477Z,2.23
2018-09-22T14:41:47.036Z,3.53
2018-09-22T14:44:15.485Z,2.63
2018-09-22T14:46:45.336Z,3.27
2018-09-22T14:49:13.793Z,3.70
2018-09-22T14:51:42.298Z,3.60
2018-09-22T14:54:10.766Z,2.90
2018-09-22T14:56:39.204Z,3.40
2018-09-22T14:59:07.680Z,4.63
2018-09-22T15:01:36.704Z,2.47
2018-09-22T15:04:05.154Z,3.67
2018-09-22T15:06:33.587Z,3.87
2018-09-22T15:09:02.035Z,5.00
2018-09-22T15:11:30.548Z,3.83
2018-09-22T15:13:58.985Z,2.40
2018-09-22T15:16:27.536Z,2.50
2018-09-22T15:18:57.063Z,8.67
2018-09-22T15:21:25.786Z,2.93
2018-09-22T15:23:54.385Z,5.33
2018-09-22T15:26:22.903Z,3.90
2018-09-22T15:28:51.363Z,2.93
2018-09-22T15:31:19.816Z,2.47
2018-09-22T15:33:48.260Z,2.20
2018-09-22T15:36:16.716Z,3.77
2018-09-22T15:38:45.148Z,2.30
2018-09-22T15:41:13.691Z,3.83
2018-09-22T15:43:42.094Z,3.43
2018-09-22T15:46:10.544Z,4.53
2018-09-22T15:48:39.007Z,5.80
2018-09-22T15:51:07.580Z,4.07
2018-09-22T15:53:36.060Z,3.13
2018-09-22T15:56:04.533Z,4.80
2018-09-22T15:58:32.990Z,4.43
2018-09-22T16:01:01.564Z,6.17
2018-09-22T16:03:29.959Z,5.47
2018-09-22T16:05:58.394Z,3.37
2018-09-22T16:08:27.112Z,5.53
2018-09-22T16:10:55.482Z,6.67
2018-09-22T16:13:23.936Z,4.53
2018-09-22T16:15:52.447Z,4.73
2018-09-22T16:18:20.956Z,3.12
2018-09-22T16:20:49.394Z,2.13
2018-09-22T16:23:17.862Z,4.50
2018-09-22T16:25:46.566Z,2.77
2018-09-22T16:28:15.033Z,2.63
2018-09-22T16:30:43.508Z,3.07
2018-09-22T16:33:11.989Z,2.17
2018-09-22T16:35:40.421Z,4.90
2018-09-22T16:38:08.980Z,4.00
2018-09-22T16:40:38.388Z,3.90
2018-09-22T16:43:06.926Z,7.97
2018-09-22T16:45:35.381Z,5.80
2018-09-22T16:48:03.819Z,4.17
2018-09-22T16:50:32.272Z,3.27
2018-09-22T16:53:01.245Z,3.53
2018-09-22T16:55:29.733Z,3.87
2018-09-22T16:57:58.177Z,3.57
2018-09-22T17:00:26.722Z,4.30
2018-09-22T17:02:55.172Z,2.97
2018-09-22T17:05:23.675Z,3.23
2018-09-22T17:07:52.217Z,4.63
2018-09-22T17:10:20.815Z,4.43
2018-09-22T17:12:49.285Z,3.53
2018-09-22T17:15:17.795Z,3.43
2018-09-22T17:17:46.368Z,2.17
2018-09-22T17:20:14.874Z,3.83
2018-09-22T17:22:43.340Z,2.53
2018-09-22T17:25:11.843Z,6.77
2018-09-22T17:27:40.401Z,4.13
2018-09-22T17:30:08.888Z,3.43
2018-09-22T17:32:37.383Z,3.10
2018-09-22T17:35:05.907Z,3.73
2018-09-22T17:37:34.364Z,3.57
2018-09-22T17:40:02.886Z,4.07
2018-09-22T17:42:31.461Z,3.67
2018-09-22T17:45:00.228Z,3.43
2018-09-22T17:47:28.725Z,2.50
2018-09-22T17:49:57.152Z,2.87
2018-09-22T17:52:25.819Z,3.50
2018-09-22T17:54:54.288Z,2.80
2018-09-22T17:57:22.721Z,2.57
2018-09-22T17:59:51.281Z,2.20
2018-09-22T18:02:19.725Z,2.93
2018-09-22T18:04:48.247Z,3.03
2018-09-22T18:07:16.718Z,3.93
2018-09-22T18:09:45.194Z,3.55
2018-09-22T18:12:13.621Z,2.87
2018-09-22T18:14:42.031Z,2.47
2018-09-22T18:17:10.427Z,3.73
2018-09-22T18:19:38.903Z,3.87
2018-09-22T18:22:07.387Z,3.67
2018-09-22T18:24:35.770Z,6.43
2018-09-22T18:27:04.171Z,4.70
2018-09-22T18:29:32.626Z,2.73
2018-09-22T18:32:01.036Z,3.40
2018-09-22T18:34:29.403Z,5.90
2018-09-22T18:36:58.912Z,4.67
2018-09-22T18:39:27.322Z,3.73
2018-09-22T18:41:56.669Z,4.63
2018-09-22T18:44:25.047Z,6.07
2018-09-22T18:46:54.589Z,3.77
2018-09-22T18:49:22.992Z,5.23
2018-09-22T18:51:51.442Z,4.27
2018-09-22T18:54:19.853Z,2.77
2018-09-22T18:56:48.254Z,3.43
2018-09-22T18:59:16.837Z,5.80
2018-09-22T19:01:45.402Z,2.70
2018-09-22T19:04:13.774Z,3.53
2018-09-22T19:06:42.674Z,4.30
2018-09-22T19:09:11.308Z,3.37
2018-09-22T19:11:40.619Z,2.83
2018-09-22T19:14:13.784Z,2.17
2018-09-22T19:16:49.196Z,2.77
2018-09-22T19:19:23.281Z,2.10
2018-09-22T19:21:56.604Z,3.87
2018-09-22T19:25:29.207Z,3.93
2018-09-22T19:28:04.633Z,2.37
2018-09-22T19:30:36.184Z,3.10
2018-09-22T19:33:14.090Z,2.80
2018-09-22T19:35:52.248Z,2.03
2018-09-22T19:38:32.132Z,3.93
2018-09-22T19:41:04.118Z,3.33
2018-09-22T19:43:37.802Z,3.30
2018-09-22T19:46:11.465Z,4.33
2018-09-22T19:48:51.160Z,3.50
2018-09-22T19:51:21.556Z,4.57
2018-09-22T19:53:50.443Z,3.93
2018-09-22T19:56:18.825Z,3.10
2018-09-22T19:58:47.287Z,3.30
2018-09-22T20:01:15.670Z,2.67
2018-09-22T20:03:44.072Z,3.07
2018-09-22T20:06:12.511Z,2.80
2018-09-22T20:08:40.894Z,2.27
2018-09-22T20:11:09.299Z,4.57
2018-09-22T20:13:38.259Z,2.83
2018-09-22T20:16:06.720Z,3.17
2018-09-22T20:18:35.094Z,2.40
2018-09-22T20:21:03.567Z,3.13
2018-09-22T20:23:31.957Z,3.20
2018-09-22T20:26:00.438Z,2.53
2018-09-22T20:28:28.838Z,2.73
2018-09-22T20:30:57.276Z,2.70
2018-09-22T20:33:25.692Z,2.13
2018-09-22T20:35:54.202Z,2.27
2018-09-22T20:38:22.671Z,3.13
2018-09-22T20:40:51.133Z,2.00
2018-09-22T20:43:19.589Z,2.30
2018-09-22T20:45:48.065Z,3.00
2018-09-22T20:48:16.486Z,3.20
2018-09-22T20:50:45.537Z,4.43
2018-09-22T20:53:13.965Z,2.37
2018-09-22T20:55:42.433Z,3.07
2018-09-22T20:58:10.889Z,3.17
2018-09-22T21:00:39.327Z,3.80
2018-09-22T21:03:07.745Z,3.03
2018-09-22T21:05:36.184Z,2.70
2018-09-22T21:08:04.640Z,2.93
2018-09-22T21:10:33.093Z,2.10
2018-09-22T21:13:01.567Z,2.83
2018-09-22T21:15:30.051Z,2.37
2018-09-22T21:17:58.544Z,1.90
2018-09-22T21:20:27.197Z,2.73
2018-09-22T21:22:56.636Z,2.57
2018-09-22T21:25:25.068Z,3.30
2018-09-22T21:27:53.537Z,3.50
2018-09-22T21:30:22.001Z,2.17
2018-09-22T21:32:50.453Z,2.03
2018-09-22T21:35:18.955Z,3.47
2018-09-22T21:37:47.428Z,3.00
2018-09-22T21:40:15.892Z,2.73
2018-09-22T21:42:44.390Z,2.23
2018-09-22T21:45:12.964Z,2.93
2018-09-22T21:47:41.503Z,2.60
2018-09-22T21:50:09.952Z,2.33
2018-09-22T21:52:38.520Z,3.27
2018-09-22T21:55:06.957Z,2.30
2018-09-22T21:57:35.476Z,2.40
2018-09-22T22:00:04.177Z,2.40
2018-09-22T22:02:32.632Z,2.07
2018-09-22T22:05:01.233Z,1.80
2018-09-22T22:07:29.663Z,2.77
2018-09-22T22:09:58.146Z,3.37
2018-09-22T22:12:26.672Z,2.63
2018-09-22T22:14:55.097Z,2.83
2018-09-22T22:17:23.613Z,1.70
2018-09-22T22:19:52.131Z,2.50
2018-09-22T22:22:20.628Z,2.37
2018-09-22T22:24:49.120Z,3.67
2018-09-22T22:27:17.573Z,2.00
2018-09-22T22:29:46.026Z,2.13
2018-09-22T22:32:14.545Z,2.37
2018-09-22T22:34:44.017Z,2.13
2018-09-22T22:37:12.458Z,1.90
2018-09-22T22:39:42.216Z,3.07
2018-09-22T22:42:10.665Z,2.23
2018-09-22T22:44:39.150Z,1.83
2018-09-22T22:47:07.565Z,3.10
2018-09-22T22:49:36.024Z,1.37
2018-09-22T22:52:04.526Z,2.53
2018-09-22T22:54:33.061Z,2.17
2018-09-22T22:57:01.564Z,2.43
2018-09-22T22:59:30.025Z,2.17
2018-09-22T23:01:58.512Z,2.33
2018-09-22T23:04:26.967Z,1.60
2018-09-22T23:06:55.446Z,1.80
2018-09-22T23:09:23.965Z,2.00
2018-09-22T23:11:53.450Z,1.90
2018-09-22T23:14:21.878Z,2.20
2018-09-22T23:16:50.310Z,1.90
2018-09-22T23:19:18.796Z,1.60
2018-09-22T23:21:47.250Z,1.60
2018-09-22T23:24:15.698Z,1.93
2018-09-22T23:26:44.161Z,1.93
2018-09-22T23:29:12.644Z,1.87
2018-09-22T23:31:41.072Z,1.80
2018-09-22T23:34:09.551Z,2.20
2018-09-22T23:36:37.985Z,1.87
2018-09-22T23:39:07.936Z,1.77
2018-09-22T23:41:36.384Z,1.57
2018-09-22T23:44:04.812Z,1.40
2018-09-22T23:46:33.244Z,1.50
2018-09-22T23:49:01.708Z,2.00
2018-09-22T23:51:30.153Z,2.27
2018-09-22T23:53:58.581Z,1.40
2018-09-22T23:56:27.597Z,1.60
2018-09-22T23:58:56.055Z,1.63
